Tunnerville, South Dakota
Current Conditions -  °F | °C
As of 8:53 PM on Saturday 25 Oct 2014 (Local Time) from KCNB Reporting Station
Clear Clear  
Wind Chill: 40°   Ceiling: Unl
Heat Index: 40°   Visibility: 10mi
Dew Point: 32°   Wind: 0mph
Humidity: 72%   Direction: NA
Pressure: 30.07"   Gusts: NA
Location:  44.7895°N, 96.7201°W
Report Text: KCNB 260153Z AUTO 00000KT 10SM CLR 05/00 A3007 RMK AO2 T00470001
Loading
Personal Weather Stations






























Interactive Weather Map New forecast layout! Learn more

10-Day Weather Forecast

Advertisements
Track Severe Weather on mobile